sensor_id;sensor_type;location;lat;lon;timestamp;temperature;humidity
72106;SHT30;59975;47.646;18.318;2023-04-24T00:00:05;15.10;55.34
72106;SHT30;59975;47.646;18.318;2023-04-24T00:02:35;15.12;55.47
72106;SHT30;59975;47.646;18.318;2023-04-24T00:05:06;15.14;55.10
72106;SHT30;59975;47.646;18.318;2023-04-24T00:07:33;15.20;55.19
72106;SHT30;59975;47.646;18.318;2023-04-24T00:09:58;15.28;53.96
72106;SHT30;59975;47.646;18.318;2023-04-24T00:12:25;15.41;53.64
72106;SHT30;59975;47.646;18.318;2023-04-24T00:14:51;15.51;52.89
72106;SHT30;59975;47.646;18.318;2023-04-24T00:17:16;15.62;52.58
72106;SHT30;59975;47.646;18.318;2023-04-24T00:19:45;15.70;51.98
72106;SHT30;59975;47.646;18.318;2023-04-24T00:22:11;15.78;51.67
72106;SHT30;59975;47.646;18.318;2023-04-24T00:24:38;15.79;51.87
72106;SHT30;59975;47.646;18.318;2023-04-24T00:27:04;15.82;51.61
72106;SHT30;59975;47.646;18.318;2023-04-24T00:29:30;15.83;51.74
72106;SHT30;59975;47.646;18.318;2023-04-24T00:31:55;15.78;51.99
72106;SHT30;59975;47.646;18.318;2023-04-24T00:34:21;15.79;52.04
72106;SHT30;59975;47.646;18.318;2023-04-24T00:36:46;15.75;52.51
72106;SHT30;59975;47.646;18.318;2023-04-24T00:39:14;15.75;52.40
72106;SHT30;59975;47.646;18.318;2023-04-24T00:41:39;15.70;52.48
72106;SHT30;59975;47.646;18.318;2023-04-24T00:44:05;15.69;52.84
72106;SHT30;59975;47.646;18.318;2023-04-24T00:46:31;15.79;52.85
72106;SHT30;59975;47.646;18.318;2023-04-24T00:48:58;15.75;53.26
72106;SHT30;59975;47.646;18.318;2023-04-24T00:51:24;15.68;53.79
72106;SHT30;59975;47.646;18.318;2023-04-24T00:53:50;15.62;54.03
72106;SHT30;59975;47.646;18.318;2023-04-24T00:56:17;15.61;54.39
72106;SHT30;59975;47.646;18.318;2023-04-24T00:58:44;15.57;54.93
72106;SHT30;59975;47.646;18.318;2023-04-24T01:01:09;15.55;55.17
72106;SHT30;59975;47.646;18.318;2023-04-24T01:03:37;15.59;55.00
72106;SHT30;59975;47.646;18.318;2023-04-24T01:06:04;15.57;55.50
72106;SHT30;59975;47.646;18.318;2023-04-24T01:08:30;15.57;56.04
72106;SHT30;59975;47.646;18.318;2023-04-24T01:10:57;15.44;56.90
72106;SHT30;59975;47.646;18.318;2023-04-24T01:13:23;15.37;58.02
72106;SHT30;59975;47.646;18.318;2023-04-24T01:15:49;15.24;58.48
72106;SHT30;59975;47.646;18.318;2023-04-24T01:18:15;15.12;59.44
72106;SHT30;59975;47.646;18.318;2023-04-24T01:20:50;14.93;59.93
72106;SHT30;59975;47.646;18.318;2023-04-24T01:23:16;14.93;59.64
72106;SHT30;59975;47.646;18.318;2023-04-24T01:25:42;15.03;59.64
72106;SHT30;59975;47.646;18.318;2023-04-24T01:28:08;15.04;60.02
72106;SHT30;59975;47.646;18.318;2023-04-24T01:30:33;15.06;60.03
72106;SHT30;59975;47.646;18.318;2023-04-24T01:32:59;15.08;60.31
72106;SHT30;59975;47.646;18.318;2023-04-24T01:35:25;15.06;60.11
72106;SHT30;59975;47.646;18.318;2023-04-24T01:37:51;15.03;60.10
72106;SHT30;59975;47.646;18.318;2023-04-24T01:40:16;15.04;59.85
72106;SHT30;59975;47.646;18.318;2023-04-24T01:42:42;15.04;59.38
72106;SHT30;59975;47.646;18.318;2023-04-24T01:45:10;15.01;59.48
72106;SHT30;59975;47.646;18.318;2023-04-24T01:47:36;14.97;59.46
72106;SHT30;59975;47.646;18.318;2023-04-24T01:50:03;14.94;59.69
72106;SHT30;59975;47.646;18.318;2023-04-24T01:52:28;14.93;60.04
72106;SHT30;59975;47.646;18.318;2023-04-24T01:54:56;14.90;59.90
72106;SHT30;59975;47.646;18.318;2023-04-24T01:57:22;14.96;59.59
72106;SHT30;59975;47.646;18.318;2023-04-24T01:59:47;14.88;59.90
72106;SHT30;59975;47.646;18.318;2023-04-24T02:02:13;14.87;59.75
72106;SHT30;59975;47.646;18.318;2023-04-24T02:04:39;14.80;60.23
72106;SHT30;59975;47.646;18.318;2023-04-24T02:07:04;14.76;60.47
72106;SHT30;59975;47.646;18.318;2023-04-24T02:09:30;14.72;60.25
72106;SHT30;59975;47.646;18.318;2023-04-24T02:11:55;14.70;60.54
72106;SHT30;59975;47.646;18.318;2023-04-24T02:14:21;14.67;60.82
72106;SHT30;59975;47.646;18.318;2023-04-24T02:16:47;14.60;61.28
72106;SHT30;59975;47.646;18.318;2023-04-24T02:19:12;14.59;61.34
72106;SHT30;59975;47.646;18.318;2023-04-24T02:21:38;14.57;61.60
72106;SHT30;59975;47.646;18.318;2023-04-24T02:24:03;14.60;61.82
72106;SHT30;59975;47.646;18.318;2023-04-24T02:26:29;14.60;61.93
72106;SHT30;59975;47.646;18.318;2023-04-24T02:28:57;14.60;62.11
72106;SHT30;59975;47.646;18.318;2023-04-24T02:31:22;14.53;62.38
72106;SHT30;59975;47.646;18.318;2023-04-24T02:33:49;14.52;62.48
72106;SHT30;59975;47.646;18.318;2023-04-24T02:36:14;14.52;62.78
72106;SHT30;59975;47.646;18.318;2023-04-24T02:38:40;14.49;63.21
72106;SHT30;59975;47.646;18.318;2023-04-24T02:41:05;14.50;63.07
72106;SHT30;59975;47.646;18.318;2023-04-24T02:43:32;14.50;62.86
72106;SHT30;59975;47.646;18.318;2023-04-24T02:45:58;14.49;62.93
72106;SHT30;59975;47.646;18.318;2023-04-24T02:48:24;14.43;63.12
72106;SHT30;59975;47.646;18.318;2023-04-24T02:50:49;14.49;63.26
72106;SHT30;59975;47.646;18.318;2023-04-24T02:53:16;14.46;63.23
72106;SHT30;59975;47.646;18.318;2023-04-24T02:55:41;14.49;63.16
72106;SHT30;59975;47.646;18.318;2023-04-24T02:58:07;14.44;63.33
72106;SHT30;59975;47.646;18.318;2023-04-24T03:00:32;14.50;63.05
72106;SHT30;59975;47.646;18.318;2023-04-24T03:02:58;14.55;63.31
72106;SHT30;59975;47.646;18.318;2023-04-24T03:05:24;14.56;63.01
72106;SHT30;59975;47.646;18.318;2023-04-24T03:07:49;14.59;63.47
72106;SHT30;59975;47.646;18.318;2023-04-24T03:10:15;14.57;63.71
72106;SHT30;59975;47.646;18.318;2023-04-24T03:12:40;14.59;63.33
72106;SHT30;59975;47.646;18.318;2023-04-24T03:15:06;14.60;63.35
72106;SHT30;59975;47.646;18.318;2023-04-24T03:17:32;14.55;63.43
72106;SHT30;59975;47.646;18.318;2023-04-24T03:19:58;14.49;63.71
72106;SHT30;59975;47.646;18.318;2023-04-24T03:22:23;14.56;62.82
72106;SHT30;59975;47.646;18.318;2023-04-24T03:24:49;14.53;63.05
72106;SHT30;59975;47.646;18.318;2023-04-24T03:27:14;14.52;62.94
72106;SHT30;59975;47.646;18.318;2023-04-24T03:29:40;14.49;62.94
72106;SHT30;59975;47.646;18.318;2023-04-24T03:32:05;14.47;63.10
72106;SHT30;59975;47.646;18.318;2023-04-24T03:34:31;14.50;62.83
72106;SHT30;59975;47.646;18.318;2023-04-24T03:36:56;14.43;62.78
72106;SHT30;59975;47.646;18.318;2023-04-24T03:39:21;14.47;62.79
72106;SHT30;59975;47.646;18.318;2023-04-24T03:41:47;14.43;62.55
72106;SHT30;59975;47.646;18.318;2023-04-24T03:44:12;14.47;62.48
72106;SHT30;59975;47.646;18.318;2023-04-24T03:46:38;14.49;62.21
72106;SHT30;59975;47.646;18.318;2023-04-24T03:49:03;14.50;62.22
72106;SHT30;59975;47.646;18.318;2023-04-24T03:51:29;14.55;62.06
72106;SHT30;59975;47.646;18.318;2023-04-24T03:53:56;14.55;62.41
72106;SHT30;59975;47.646;18.318;2023-04-24T03:56:21;14.53;62.54
72106;SHT30;59975;47.646;18.318;2023-04-24T03:58:46;14.50;63.10
72106;SHT30;59975;47.646;18.318;2023-04-24T04:01:12;14.49;62.76
72106;SHT30;59975;47.646;18.318;2023-04-24T04:03:38;14.39;63.12
72106;SHT30;59975;47.646;18.318;2023-04-24T04:06:04;14.44;63.06
72106;SHT30;59975;47.646;18.318;2023-04-24T04:08:30;14.40;63.10
72106;SHT30;59975;47.646;18.318;2023-04-24T04:10:55;14.37;63.21
72106;SHT30;59975;47.646;18.318;2023-04-24T04:13:21;14.39;63.36
72106;SHT30;59975;47.646;18.318;2023-04-24T04:15:46;14.39;63.61
72106;SHT30;59975;47.646;18.318;2023-04-24T04:18:12;14.40;63.44
72106;SHT30;59975;47.646;18.318;2023-04-24T04:20:37;14.40;63.45
72106;SHT30;59975;47.646;18.318;2023-04-24T04:23:03;14.47;63.46
72106;SHT30;59975;47.646;18.318;2023-04-24T04:25:28;14.49;63.42
72106;SHT30;59975;47.646;18.318;2023-04-24T04:27:54;14.50;63.40
72106;SHT30;59975;47.646;18.318;2023-04-24T04:30:20;14.52;63.64
72106;SHT30;59975;47.646;18.318;2023-04-24T04:32:46;14.62;62.95
72106;SHT30;59975;47.646;18.318;2023-04-24T04:35:11;14.69;63.18
72106;SHT30;59975;47.646;18.318;2023-04-24T04:37:37;14.76;62.75
72106;SHT30;59975;47.646;18.318;2023-04-24T04:40:03;14.83;62.65
72106;SHT30;59975;47.646;18.318;2023-04-24T04:42:32;14.87;62.72
72106;SHT30;59975;47.646;18.318;2023-04-24T04:45:07;14.98;62.03
72106;SHT30;59975;47.646;18.318;2023-04-24T04:47:34;15.04;62.32
72106;SHT30;59975;47.646;18.318;2023-04-24T04:50:00;15.08;62.55
72106;SHT30;59975;47.646;18.318;2023-04-24T04:52:25;15.23;62.13
72106;SHT30;59975;47.646;18.318;2023-04-24T04:54:52;15.30;62.14
72106;SHT30;59975;47.646;18.318;2023-04-24T04:57:17;15.35;62.13
72106;SHT30;59975;47.646;18.318;2023-04-24T04:59:43;15.35;61.89
72106;SHT30;59975;47.646;18.318;2023-04-24T05:02:09;15.49;61.32
72106;SHT30;59975;47.646;18.318;2023-04-24T05:04:34;15.38;61.81
72106;SHT30;59975;47.646;18.318;2023-04-24T05:07:00;15.48;61.30
72106;SHT30;59975;47.646;18.318;2023-04-24T05:09:25;15.42;61.27
72106;SHT30;59975;47.646;18.318;2023-04-24T05:11:55;15.37;61.22
72106;SHT30;59975;47.646;18.318;2023-04-24T05:14:21;15.27;61.97
72106;SHT30;59975;47.646;18.318;2023-04-24T05:16:47;15.30;61.76
72106;SHT30;59975;47.646;18.318;2023-04-24T05:19:13;15.18;62.09
72106;SHT30;59975;47.646;18.318;2023-04-24T05:21:39;15.10;62.76
72106;SHT30;59975;47.646;18.318;2023-04-24T05:24:06;15.11;62.56
72106;SHT30;59975;47.646;18.318;2023-04-24T05:26:31;15.18;62.09
72106;SHT30;59975;47.646;18.318;2023-04-24T05:28:57;15.07;62.66
72106;SHT30;59975;47.646;18.318;2023-04-24T05:31:22;15.08;62.51
72106;SHT30;59975;47.646;18.318;2023-04-24T05:33:48;15.08;62.58
72106;SHT30;59975;47.646;18.318;2023-04-24T05:36:14;15.20;62.55
72106;SHT30;59975;47.646;18.318;2023-04-24T05:38:40;15.20;62.42
72106;SHT30;59975;47.646;18.318;2023-04-24T05:41:05;15.42;61.84
72106;SHT30;59975;47.646;18.318;2023-04-24T05:43:34;15.52;61.83
72106;SHT30;59975;47.646;18.318;2023-04-24T05:46:02;15.70;61.42
72106;SHT30;59975;47.646;18.318;2023-04-24T05:48:40;15.82;61.59
72106;SHT30;59975;47.646;18.318;2023-04-24T05:51:15;15.92;62.00
72106;SHT30;59975;47.646;18.318;2023-04-24T05:53:59;15.96;61.24
72106;SHT30;59975;47.646;18.318;2023-04-24T05:57:26;16.13;60.61
72106;SHT30;59975;47.646;18.318;2023-04-24T06:00:44;16.27;60.71
72106;SHT30;59975;47.646;18.318;2023-04-24T06:04:02;16.19;60.00
72106;SHT30;59975;47.646;18.318;2023-04-24T06:06:28;16.37;59.78
72106;SHT30;59975;47.646;18.318;2023-04-24T06:09:07;16.47;59.93
72106;SHT30;59975;47.646;18.318;2023-04-24T06:11:53;16.54;59.58
72106;SHT30;59975;47.646;18.318;2023-04-24T06:14:19;16.56;59.57
72106;SHT30;59975;47.646;18.318;2023-04-24T06:16:53;16.47;59.84
72106;SHT30;59975;47.646;18.318;2023-04-24T06:19:28;16.50;59.80
72106;SHT30;59975;47.646;18.318;2023-04-24T06:21:56;16.47;59.83
72106;SHT30;59975;47.646;18.318;2023-04-24T06:24:27;16.44;59.67
72106;SHT30;59975;47.646;18.318;2023-04-24T06:26:53;16.57;59.79
72106;SHT30;59975;47.646;18.318;2023-04-24T06:29:31;16.49;60.03
72106;SHT30;59975;47.646;18.318;2023-04-24T06:32:13;16.54;59.96
72106;SHT30;59975;47.646;18.318;2023-04-24T06:34:47;16.65;59.92
72106;SHT30;59975;47.646;18.318;2023-04-24T06:37:32;16.68;59.93
72106;SHT30;59975;47.646;18.318;2023-04-24T06:40:20;16.78;59.68
72106;SHT30;59975;47.646;18.318;2023-04-24T06:43:26;17.05;59.61
72106;SHT30;59975;47.646;18.318;2023-04-24T06:46:35;17.18;59.31
72106;SHT30;59975;47.646;18.318;2023-04-24T06:49:04;17.42;57.97
72106;SHT30;59975;47.646;18.318;2023-04-24T06:52:04;17.40;57.77
72106;SHT30;59975;47.646;18.318;2023-04-24T06:54:32;17.35;58.80
72106;SHT30;59975;47.646;18.318;2023-04-24T06:57:10;17.38;59.21
72106;SHT30;59975;47.646;18.318;2023-04-24T07:00:19;17.76;57.96
72106;SHT30;59975;47.646;18.318;2023-04-24T07:06:19;17.83;57.56
72106;SHT30;59975;47.646;18.318;2023-04-24T07:09:03;17.83;57.78
72106;SHT30;59975;47.646;18.318;2023-04-24T07:11:31;17.79;57.78
72106;SHT30;59975;47.646;18.318;2023-04-24T07:14:11;18.01;56.12
72106;SHT30;59975;47.646;18.318;2023-04-24T07:17:04;18.04;56.62
72106;SHT30;59975;47.646;18.318;2023-04-24T07:20:16;18.24;55.59
72106;SHT30;59975;47.646;18.318;2023-04-24T07:26:27;18.84;53.79
72106;SHT30;59975;47.646;18.318;2023-04-24T07:29:23;18.68;53.38
72106;SHT30;59975;47.646;18.318;2023-04-24T07:35:41;18.98;54.23
72106;SHT30;59975;47.646;18.318;2023-04-24T07:38:17;19.06;53.52
72106;SHT30;59975;47.646;18.318;2023-04-24T07:40:46;19.25;52.90
72106;SHT30;59975;47.646;18.318;2023-04-24T07:43:11;19.46;52.45
72106;SHT30;59975;47.646;18.318;2023-04-24T07:45:37;19.29;52.05
72106;SHT30;59975;47.646;18.318;2023-04-24T07:48:05;19.55;51.57
72106;SHT30;59975;47.646;18.318;2023-04-24T07:50:30;19.96;50.19
72106;SHT30;59975;47.646;18.318;2023-04-24T07:53:07;20.21;51.24
72106;SHT30;59975;47.646;18.318;2023-04-24T07:55:32;20.59;48.51
72106;SHT30;59975;47.646;18.318;2023-04-24T07:57:58;20.83;48.24
72106;SHT30;59975;47.646;18.318;2023-04-24T08:00:42;20.55;48.28
72106;SHT30;59975;47.646;18.318;2023-04-24T08:03:24;20.59;49.72
72106;SHT30;59975;47.646;18.318;2023-04-24T08:08:50;20.85;48.07
72106;SHT30;59975;47.646;18.318;2023-04-24T08:25:29;20.27;49.74
72106;SHT30;59975;47.646;18.318;2023-04-24T08:34:26;20.29;51.57
72106;SHT30;59975;47.646;18.318;2023-04-24T08:37:22;20.59;49.66
72106;SHT30;59975;47.646;18.318;2023-04-24T08:39:50;20.61;50.57
72106;SHT30;59975;47.646;18.318;2023-04-24T08:42:27;20.69;50.35
72106;SHT30;59975;47.646;18.318;2023-04-24T08:48:09;20.86;49.65
72106;SHT30;59975;47.646;18.318;2023-04-24T08:50:38;20.86;49.29
72106;SHT30;59975;47.646;18.318;2023-04-24T08:53:09;21.06;49.06
72106;SHT30;59975;47.646;18.318;2023-04-24T08:55:58;20.99;49.17
72106;SHT30;59975;47.646;18.318;2023-04-24T09:08:58;21.29;49.98
72106;SHT30;59975;47.646;18.318;2023-04-24T09:11:26;21.23;49.69
72106;SHT30;59975;47.646;18.318;2023-04-24T09:13:53;21.09;50.65
72106;SHT30;59975;47.646;18.318;2023-04-24T09:16:19;20.78;51.48
72106;SHT30;59975;47.646;18.318;2023-04-24T09:19:12;20.99;52.02
72106;SHT30;59975;47.646;18.318;2023-04-24T09:21:48;20.85;51.91
72106;SHT30;59975;47.646;18.318;2023-04-24T09:24:21;20.47;52.70
72106;SHT30;59975;47.646;18.318;2023-04-24T09:26:59;20.73;52.60
72106;SHT30;59975;47.646;18.318;2023-04-24T09:29:29;20.79;52.43
72106;SHT30;59975;47.646;18.318;2023-04-24T09:31:58;21.07;51.92
72106;SHT30;59975;47.646;18.318;2023-04-24T09:34:27;21.20;51.68
72106;SHT30;59975;47.646;18.318;2023-04-24T09:36:53;21.27;50.72
72106;SHT30;59975;47.646;18.318;2023-04-24T09:39:19;21.51;51.01
72106;SHT30;59975;47.646;18.318;2023-04-24T09:41:53;21.19;51.98
72106;SHT30;59975;47.646;18.318;2023-04-24T09:44:41;20.48;52.64
72106;SHT30;59975;47.646;18.318;2023-04-24T09:47:53;20.04;54.01
72106;SHT30;59975;47.646;18.318;2023-04-24T09:50:53;20.39;53.91
72106;SHT30;59975;47.646;18.318;2023-04-24T09:53:38;20.68;53.51
72106;SHT30;59975;47.646;18.318;2023-04-24T09:56:30;20.78;53.31
72106;SHT30;59975;47.646;18.318;2023-04-24T09:59:07;21.07;51.52
72106;SHT30;59975;47.646;18.318;2023-04-24T10:01:45;20.79;50.68
72106;SHT30;59975;47.646;18.318;2023-04-24T10:04:29;20.93;51.64
72106;SHT30;59975;47.646;18.318;2023-04-24T10:07:04;20.86;51.57
72106;SHT30;59975;47.646;18.318;2023-04-24T10:09:32;20.83;51.71
72106;SHT30;59975;47.646;18.318;2023-04-24T10:12:01;20.44;52.60
72106;SHT30;59975;47.646;18.318;2023-04-24T10:14:27;20.27;52.93
72106;SHT30;59975;47.646;18.318;2023-04-24T10:16:54;20.10;53.26
72106;SHT30;59975;47.646;18.318;2023-04-24T10:19:25;20.28;53.12
72106;SHT30;59975;47.646;18.318;2023-04-24T10:21:54;20.08;54.15
72106;SHT30;59975;47.646;18.318;2023-04-24T10:24:29;19.91;54.88
72106;SHT30;59975;47.646;18.318;2023-04-24T10:26:55;19.87;54.74
72106;SHT30;59975;47.646;18.318;2023-04-24T10:29:22;19.87;54.60
72106;SHT30;59975;47.646;18.318;2023-04-24T10:32:07;19.76;54.85
72106;SHT30;59975;47.646;18.318;2023-04-24T10:34:35;19.57;55.88
72106;SHT30;59975;47.646;18.318;2023-04-24T10:37:03;19.45;56.26
72106;SHT30;59975;47.646;18.318;2023-04-24T10:39:30;19.03;58.35
72106;SHT30;59975;47.646;18.318;2023-04-24T10:41:58;18.82;58.61
72106;SHT30;59975;47.646;18.318;2023-04-24T10:44:24;18.55;58.67
72106;SHT30;59975;47.646;18.318;2023-04-24T10:46:53;18.48;59.50
72106;SHT30;59975;47.646;18.318;2023-04-24T10:49:28;18.24;60.16
72106;SHT30;59975;47.646;18.318;2023-04-24T10:52:00;18.33;59.95
72106;SHT30;59975;47.646;18.318;2023-04-24T10:54:29;18.27;61.01
72106;SHT30;59975;47.646;18.318;2023-04-24T10:57:33;18.24;61.91
72106;SHT30;59975;47.646;18.318;2023-04-24T11:00:19;18.11;62.72
72106;SHT30;59975;47.646;18.318;2023-04-24T11:02:46;18.20;62.77
72106;SHT30;59975;47.646;18.318;2023-04-24T11:05:18;18.23;63.05
72106;SHT30;59975;47.646;18.318;2023-04-24T11:08:16;18.07;62.79
72106;SHT30;59975;47.646;18.318;2023-04-24T11:10:53;18.10;63.51
72106;SHT30;59975;47.646;18.318;2023-04-24T11:14:09;17.89;64.18
72106;SHT30;59975;47.646;18.318;2023-04-24T11:21:40;17.43;66.87
72106;SHT30;59975;47.646;18.318;2023-04-24T11:27:13;17.65;66.78
72106;SHT30;59975;47.646;18.318;2023-04-24T11:29:44;17.62;66.69
72106;SHT30;59975;47.646;18.318;2023-04-24T11:35:05;17.58;66.04
72106;SHT30;59975;47.646;18.318;2023-04-24T11:37:39;17.32;66.80
72106;SHT30;59975;47.646;18.318;2023-04-24T11:40:15;17.35;66.75
72106;SHT30;59975;47.646;18.318;2023-04-24T11:42:43;17.29;66.74
72106;SHT30;59975;47.646;18.318;2023-04-24T11:45:14;17.22;67.41
72106;SHT30;59975;47.646;18.318;2023-04-24T11:47:41;17.38;68.04
72106;SHT30;59975;47.646;18.318;2023-04-24T11:50:11;17.45;67.60
72106;SHT30;59975;47.646;18.318;2023-04-24T11:52:46;17.05;68.78
72106;SHT30;59975;47.646;18.318;2023-04-24T11:57:45;16.87;68.81
72106;SHT30;59975;47.646;18.318;2023-04-24T12:00:19;16.83;69.17
72106;SHT30;59975;47.646;18.318;2023-04-24T12:02:46;16.84;69.42
72106;SHT30;59975;47.646;18.318;2023-04-24T12:05:23;16.85;69.68
72106;SHT30;59975;47.646;18.318;2023-04-24T12:07:49;16.75;69.28
72106;SHT30;59975;47.646;18.318;2023-04-24T12:10:23;16.67;69.46
72106;SHT30;59975;47.646;18.318;2023-04-24T12:12:49;16.71;69.65
72106;SHT30;59975;47.646;18.318;2023-04-24T12:15:17;16.78;69.49
72106;SHT30;59975;47.646;18.318;2023-04-24T12:17:44;16.74;68.85
72106;SHT30;59975;47.646;18.318;2023-04-24T12:20:10;16.84;68.26
72106;SHT30;59975;47.646;18.318;2023-04-24T12:22:57;16.60;69.46
72106;SHT30;59975;47.646;18.318;2023-04-24T12:25:25;16.80;68.86
72106;SHT30;59975;47.646;18.318;2023-04-24T12:28:15;16.94;68.61
72106;SHT30;59975;47.646;18.318;2023-04-24T12:30:42;17.22;67.24
72106;SHT30;59975;47.646;18.318;2023-04-24T12:33:11;17.69;66.29
72106;SHT30;59975;47.646;18.318;2023-04-24T12:35:43;17.67;66.53
72106;SHT30;59975;47.646;18.318;2023-04-24T12:38:10;17.73;66.94
72106;SHT30;59975;47.646;18.318;2023-04-24T12:40:36;17.91;66.08
72106;SHT30;59975;47.646;18.318;2023-04-24T12:43:02;17.56;66.90
72106;SHT30;59975;47.646;18.318;2023-04-24T12:45:37;17.62;66.88
72106;SHT30;59975;47.646;18.318;2023-04-24T12:48:03;17.69;66.04
72106;SHT30;59975;47.646;18.318;2023-04-24T12:50:28;17.62;67.79
72106;SHT30;59975;47.646;18.318;2023-04-24T12:52:54;17.63;67.94
72106;SHT30;59975;47.646;18.318;2023-04-24T12:55:19;17.34;67.97
72106;SHT30;59975;47.646;18.318;2023-04-24T12:57:45;17.24;68.29
72106;SHT30;59975;47.646;18.318;2023-04-24T13:00:11;17.21;69.11
72106;SHT30;59975;47.646;18.318;2023-04-24T13:02:36;16.96;69.47
72106;SHT30;59975;47.646;18.318;2023-04-24T13:05:02;16.85;70.56
72106;SHT30;59975;47.646;18.318;2023-04-24T13:07:28;16.60;72.49
72106;SHT30;59975;47.646;18.318;2023-04-24T13:09:55;16.85;71.82
72106;SHT30;59975;47.646;18.318;2023-04-24T13:12:20;16.98;70.46
72106;SHT30;59975;47.646;18.318;2023-04-24T13:14:46;17.07;71.03
72106;SHT30;59975;47.646;18.318;2023-04-24T13:17:12;16.39;72.36
72106;SHT30;59975;47.646;18.318;2023-04-24T13:19:42;16.41;72.80
72106;SHT30;59975;47.646;18.318;2023-04-24T13:22:12;16.46;72.45
72106;SHT30;59975;47.646;18.318;2023-04-24T13:24:38;16.14;72.90
72106;SHT30;59975;47.646;18.318;2023-04-24T13:27:06;15.99;73.38
72106;SHT30;59975;47.646;18.318;2023-04-24T13:29:31;16.05;72.90
72106;SHT30;59975;47.646;18.318;2023-04-24T13:31:57;15.92;73.35
72106;SHT30;59975;47.646;18.318;2023-04-24T13:34:23;15.81;73.11
72106;SHT30;59975;47.646;18.318;2023-04-24T13:36:56;15.83;72.13
72106;SHT30;59975;47.646;18.318;2023-04-24T13:39:23;15.59;72.00
72106;SHT30;59975;47.646;18.318;2023-04-24T13:41:48;15.44;72.83
72106;SHT30;59975;47.646;18.318;2023-04-24T13:44:16;15.44;72.93
72106;SHT30;59975;47.646;18.318;2023-04-24T13:46:42;15.61;72.64
72106;SHT30;59975;47.646;18.318;2023-04-24T13:49:10;15.49;73.15
72106;SHT30;59975;47.646;18.318;2023-04-24T13:51:35;15.30;73.82
72106;SHT30;59975;47.646;18.318;2023-04-24T13:54:01;15.34;73.91
72106;SHT30;59975;47.646;18.318;2023-04-24T13:56:27;15.28;74.42
72106;SHT30;59975;47.646;18.318;2023-04-24T13:58:54;15.20;74.35
72106;SHT30;59975;47.646;18.318;2023-04-24T14:01:20;15.12;74.51
72106;SHT30;59975;47.646;18.318;2023-04-24T14:03:49;15.07;74.41
72106;SHT30;59975;47.646;18.318;2023-04-24T14:06:15;15.06;74.51
72106;SHT30;59975;47.646;18.318;2023-04-24T14:08:40;15.03;74.63
72106;SHT30;59975;47.646;18.318;2023-04-24T14:11:06;14.86;74.82
72106;SHT30;59975;47.646;18.318;2023-04-24T14:13:31;14.69;76.10
72106;SHT30;59975;47.646;18.318;2023-04-24T14:15:57;14.60;76.93
72106;SHT30;59975;47.646;18.318;2023-04-24T14:18:23;14.63;77.43
72106;SHT30;59975;47.646;18.318;2023-04-24T14:20:48;14.66;77.84
72106;SHT30;59975;47.646;18.318;2023-04-24T14:23:14;14.55;78.47
72106;SHT30;59975;47.646;18.318;2023-04-24T14:25:40;14.39;78.56
72106;SHT30;59975;47.646;18.318;2023-04-24T14:28:05;14.21;79.08
72106;SHT30;59975;47.646;18.318;2023-04-24T14:30:31;14.19;79.21
72106;SHT30;59975;47.646;18.318;2023-04-24T14:32:57;14.16;79.80
72106;SHT30;59975;47.646;18.318;2023-04-24T14:35:22;14.13;79.97
72106;SHT30;59975;47.646;18.318;2023-04-24T14:37:48;14.04;80.51
72106;SHT30;59975;47.646;18.318;2023-04-24T14:40:14;14.11;80.60
72106;SHT30;59975;47.646;18.318;2023-04-24T14:42:40;14.18;80.02
72106;SHT30;59975;47.646;18.318;2023-04-24T14:45:06;14.29;80.20
72106;SHT30;59975;47.646;18.318;2023-04-24T14:47:32;14.32;79.71
72106;SHT30;59975;47.646;18.318;2023-04-24T14:49:58;14.33;79.72
72106;SHT30;59975;47.646;18.318;2023-04-24T14:52:23;14.39;79.56
72106;SHT30;59975;47.646;18.318;2023-04-24T14:54:49;14.39;80.37
72106;SHT30;59975;47.646;18.318;2023-04-24T14:57:14;14.34;79.94
72106;SHT30;59975;47.646;18.318;2023-04-24T14:59:40;14.37;80.52
72106;SHT30;59975;47.646;18.318;2023-04-24T15:02:06;14.23;81.23
72106;SHT30;59975;47.646;18.318;2023-04-24T15:04:31;14.16;81.39
72106;SHT30;59975;47.646;18.318;2023-04-24T15:06:57;14.08;82.11
72106;SHT30;59975;47.646;18.318;2023-04-24T15:09:23;14.21;82.04
72106;SHT30;59975;47.646;18.318;2023-04-24T15:11:50;14.02;82.37
72106;SHT30;59975;47.646;18.318;2023-04-24T15:14:17;14.04;82.33
72106;SHT30;59975;47.646;18.318;2023-04-24T15:16:43;14.23;81.93
72106;SHT30;59975;47.646;18.318;2023-04-24T15:19:08;14.21;82.24
72106;SHT30;59975;47.646;18.318;2023-04-24T15:21:36;14.18;82.16
72106;SHT30;59975;47.646;18.318;2023-04-24T15:24:09;14.21;82.09
72106;SHT30;59975;47.646;18.318;2023-04-24T15:26:35;14.29;81.51
72106;SHT30;59975;47.646;18.318;2023-04-24T15:29:01;14.08;83.77
72106;SHT30;59975;47.646;18.318;2023-04-24T15:31:27;14.06;84.25
72106;SHT30;59975;47.646;18.318;2023-04-24T15:33:52;13.86;83.76
72106;SHT30;59975;47.646;18.318;2023-04-24T15:36:18;13.88;83.50
72106;SHT30;59975;47.646;18.318;2023-04-24T15:38:44;13.94;83.44
72106;SHT30;59975;47.646;18.318;2023-04-24T15:41:11;13.99;83.00
72106;SHT30;59975;47.646;18.318;2023-04-24T15:43:36;14.08;82.53
72106;SHT30;59975;47.646;18.318;2023-04-24T15:46:04;14.02;82.31
72106;SHT30;59975;47.646;18.318;2023-04-24T15:48:29;13.98;82.81
72106;SHT30;59975;47.646;18.318;2023-04-24T15:50:55;14.02;83.22
72106;SHT30;59975;47.646;18.318;2023-04-24T15:53:20;13.99;83.18
72106;SHT30;59975;47.646;18.318;2023-04-24T15:55:50;13.98;82.85
72106;SHT30;59975;47.646;18.318;2023-04-24T15:58:16;13.99;82.93
72106;SHT30;59975;47.646;18.318;2023-04-24T16:00:42;13.99;82.58
72106;SHT30;59975;47.646;18.318;2023-04-24T16:03:08;13.99;82.68
72106;SHT30;59975;47.646;18.318;2023-04-24T16:05:33;13.91;83.31
72106;SHT30;59975;47.646;18.318;2023-04-24T16:07:59;13.81;83.25
72106;SHT30;59975;47.646;18.318;2023-04-24T16:10:25;13.89;83.70
72106;SHT30;59975;47.646;18.318;2023-04-24T16:12:51;13.81;83.27
72106;SHT30;59975;47.646;18.318;2023-04-24T16:15:18;13.74;83.85
72106;SHT30;59975;47.646;18.318;2023-04-24T16:17:43;13.68;83.80
72106;SHT30;59975;47.646;18.318;2023-04-24T16:20:09;13.68;84.25
72106;SHT30;59975;47.646;18.318;2023-04-24T16:22:37;13.81;84.17
72106;SHT30;59975;47.646;18.318;2023-04-24T16:25:03;13.75;84.60
72106;SHT30;59975;47.646;18.318;2023-04-24T16:27:29;13.71;85.07
72106;SHT30;59975;47.646;18.318;2023-04-24T16:29:54;13.68;85.42
72106;SHT30;59975;47.646;18.318;2023-04-24T16:32:20;13.70;85.53